Time;durP1;ratioP1;P1;durP2;ratioP2;P2;SDS_P1;SDS_P2;PMS_P1;PMS_P2;Temp;Humidity;BMP_temperature;BMP_pressure;BME280_temperature;BME280_humidity;BME280_pressure;Samples;Min_cycle;Max_cycle;Signal;HPM_P1;HPM_P2
2021/12/16 00:09:37;;;;;;;146.87;39.20;;;7.40;99.90;;;;;;5051845;28;20223;-71
2021/12/16 00:31:46;;;;;;;150.33;39.90;;;7.50;99.90;;;;;;5054649;28;20219;-72
2021/12/16 00:34:35;;;;;;;163.63;38.17;;;7.50;99.90;;;;;;5097594;28;20210;-71
2021/12/16 00:37:24;;;;;;;144.90;39.80;;;7.50;99.90;;;;;;5077920;27;20221;-72
2021/12/16 00:40:14;;;;;;;146.13;38.20;;;7.50;99.90;;;;;;5082685;28;20224;-73
2021/12/16 00:43:13;;;;;;;150.83;38.37;;;7.50;99.90;;;;;;5091951;28;20731;-72
2021/12/16 00:46:14;;;;;;;154.17;39.10;;;7.50;99.90;;;;;;5096710;28;20239;-72
2021/12/16 00:49:20;;;;;;;162.13;39.70;;;7.60;99.90;;;;;;5087037;27;20228;-72
2021/12/16 00:55:30;;;;;;;170.50;40.17;;;7.60;99.90;;;;;;5094103;27;20248;-72
2021/12/16 00:58:25;;;;;;;158.00;39.47;;;7.60;99.90;;;;;;5083239;28;20257;-71
2021/12/16 01:01:30;;;;;;;144.23;39.60;;;7.60;99.90;;;;;;5089282;28;20598;-71
2021/12/16 01:36:32;;;;;;;106.17;31.57;;;7.60;99.90;;;;;;5081669;28;20220;-71
2021/12/16 01:46:23;;;;;;;99.80;30.87;;;7.60;99.90;;;;;;5033716;28;20255;-73
2021/12/16 01:49:37;;;;;;;105.40;31.83;;;7.60;99.90;;;;;;5087839;28;20218;-72
2021/12/16 01:55:44;;;;;;;100.93;34.57;;;7.70;99.90;;;;;;5079350;28;20219;-72
2021/12/16 01:58:34;;;;;;;109.60;35.87;;;7.70;99.90;;;;;;5084190;28;20226;-73
2021/12/16 02:01:32;;;;;;;117.30;35.63;;;7.60;99.90;;;;;;5097505;28;20215;-71
2021/12/16 02:04:28;;;;;;;109.20;34.83;;;7.70;99.90;;;;;;5086844;28;20248;-74
2021/12/16 02:07:33;;;;;;;119.80;34.97;;;7.70;99.90;;;;;;5081279;28;20241;-74
2021/12/16 02:10:32;;;;;;;106.10;34.77;;;7.60;99.90;;;;;;5097256;27;20241;-73
2021/12/16 02:13:33;;;;;;;110.20;34.77;;;7.70;99.90;;;;;;5098584;28;20276;-73
2021/12/16 02:29:10;;;;;;;115.47;36.47;;;7.70;99.90;;;;;;5034725;28;20234;-73
2021/12/16 02:32:06;;;;;;;118.67;36.43;;;7.70;99.90;;;;;;5085064;28;20218;-73
2021/12/16 02:35:10;;;;;;;115.27;36.70;;;7.70;99.90;;;;;;5089646;27;20365;-73
2021/12/16 02:38:04;;;;;;;119.93;37.03;;;7.70;99.90;;;;;;5102230;27;20218;-72
2021/12/16 02:40:54;;;;;;;120.03;36.60;;;7.70;99.90;;;;;;5084376;28;20230;-71
2021/12/16 02:44:08;;;;;;;114.77;36.47;;;7.70;99.90;;;;;;5093849;28;20215;-70
2021/12/16 02:50:11;;;;;;;106.87;34.10;;;7.80;99.90;;;;;;5096556;27;20843;-72
2021/12/16 02:53:01;;;;;;;109.50;35.87;;;7.70;99.90;;;;;;5085197;28;20231;-71
2021/12/16 02:55:50;;;;;;;109.03;35.57;;;7.80;99.90;;;;;;5084530;28;20304;-73
2021/12/16 02:58:41;;;;;;;103.20;36.10;;;7.70;99.90;;;;;;5086793;28;20883;-72
2021/12/16 03:01:34;;;;;;;104.93;35.83;;;7.70;99.90;;;;;;5086152;27;20222;-73
2021/12/16 03:04:26;;;;;;;113.30;37.00;;;7.70;99.90;;;;;;5085221;28;20215;-72
2021/12/16 03:07:16;;;;;;;112.00;36.60;;;7.70;99.90;;;;;;5087596;28;20220;-72
2021/12/16 03:13:25;;;;;;;99.03;35.03;;;7.80;99.90;;;;;;5083212;27;20233;-71
2021/12/16 03:16:21;;;;;;;101.97;36.00;;;7.80;99.90;;;;;;5085663;28;20232;-71
2021/12/16 03:19:17;;;;;;;102.47;36.27;;;7.80;99.90;;;;;;5086812;28;20917;-72
2021/12/16 03:22:07;;;;;;;103.97;35.70;;;7.80;99.90;;;;;;5085875;27;21561;-72
2021/12/16 03:25:12;;;;;;;105.63;35.63;;;7.80;99.90;;;;;;5083106;28;20227;-72
2021/12/16 03:28:28;;;;;;;97.30;35.90;;;7.80;99.90;;;;;;5084522;28;20807;-74
2021/12/16 03:34:40;;;;;;;94.83;35.27;;;7.80;99.90;;;;;;5088153;28;20284;-72
2021/12/16 03:37:31;;;;;;;96.10;36.87;;;7.80;99.90;;;;;;5098374;27;20242;-72
2021/12/16 03:40:22;;;;;;;91.60;36.03;;;7.80;99.90;;;;;;5080905;28;20277;-72
2021/12/16 03:43:16;;;;;;;95.07;35.83;;;7.80;99.90;;;;;;5076990;28;20603;-73
2021/12/16 03:46:26;;;;;;;92.50;35.20;;;7.80;99.90;;;;;;5092400;28;20225;-73
2021/12/16 03:49:20;;;;;;;92.80;34.97;;;7.90;99.90;;;;;;5081088;28;20219;-70
2021/12/16 03:52:10;;;;;;;96.60;37.37;;;7.80;99.90;;;;;;5097856;27;20347;-70
2021/12/16 03:55:02;;;;;;;100.30;37.30;;;7.90;99.90;;;;;;5082990;28;20247;-71
2021/12/16 03:57:51;;;;;;;93.73;36.83;;;7.90;99.90;;;;;;5080615;27;20238;-72
2021/12/16 04:00:56;;;;;;;85.97;34.63;;;7.90;99.90;;;;;;5083853;28;20214;-72
2021/12/16 04:03:48;;;;;;;89.93;35.80;;;7.90;99.90;;;;;;5085507;28;20216;-72
2021/12/16 04:06:39;;;;;;;94.10;36.50;;;7.90;99.90;;;;;;5080710;28;20220;-72
2021/12/16 04:09:34;;;;;;;93.10;36.07;;;7.90;99.90;;;;;;5083585;28;20236;-71
2021/12/16 04:12:50;;;;;;;83.30;34.83;;;7.80;99.90;;;;;;5098491;28;20587;-73
2021/12/16 04:15:39;;;;;;;94.47;37.17;;;7.80;99.90;;;;;;5090041;27;20590;-71
2021/12/16 04:18:29;;;;;;;92.80;36.03;;;7.80;99.90;;;;;;5083424;28;20351;-71
2021/12/16 04:21:19;;;;;;;89.90;35.33;;;7.80;99.90;;;;;;5083828;28;20255;-72
2021/12/16 04:24:09;;;;;;;88.80;36.27;;;7.90;99.90;;;;;;5081155;28;20695;-72
2021/12/16 04:26:59;;;;;;;87.13;35.70;;;7.80;99.90;;;;;;5084930;28;20219;-71
2021/12/16 04:29:50;;;;;;;85.03;36.23;;;7.90;99.90;;;;;;5083276;28;20727;-74
2021/12/16 04:32:39;;;;;;;87.30;35.83;;;7.90;99.90;;;;;;5082106;28;20225;-70
2021/12/16 04:35:31;;;;;;;83.30;35.87;;;7.90;99.90;;;;;;5083586;28;20232;-72
2021/12/16 04:38:20;;;;;;;86.33;36.97;;;7.90;99.90;;;;;;5079080;28;20214;-72
2021/12/16 04:41:11;;;;;;;88.17;37.27;;;7.90;99.90;;;;;;5084135;28;20307;-71
2021/12/16 04:44:02;;;;;;;82.10;36.13;;;7.80;99.90;;;;;;5081687;27;20224;-72
2021/12/16 04:46:52;;;;;;;80.60;34.63;;;7.90;99.90;;;;;;5092623;28;20214;-71
2021/12/16 04:49:41;;;;;;;78.23;35.53;;;7.80;99.90;;;;;;5088454;28;20758;-70
2021/12/16 04:52:32;;;;;;;78.27;35.90;;;7.90;99.90;;;;;;5087951;28;20303;-72
2021/12/16 04:55:23;;;;;;;75.57;35.57;;;7.90;99.90;;;;;;5086724;28;20289;-71
2021/12/16 04:58:14;;;;;;;74.93;34.90;;;7.90;99.90;;;;;;5098990;28;20238;-70
2021/12/16 05:01:05;;;;;;;77.90;34.43;;;7.90;99.90;;;;;;5086244;28;20857;-68
2021/12/16 05:04:02;;;;;;;81.43;35.80;;;7.90;99.90;;;;;;5100330;27;20226;-71
2021/12/16 05:06:52;;;;;;;81.43;37.43;;;7.90;99.90;;;;;;5091762;27;20244;-70
2021/12/16 05:10:03;;;;;;;80.17;36.90;;;7.90;99.90;;;;;;5087626;27;20231;-71
2021/12/16 05:12:55;;;;;;;78.40;36.80;;;7.90;99.90;;;;;;5097640;27;20253;-73
2021/12/16 05:15:45;;;;;;;78.70;35.50;;;7.90;99.90;;;;;;5096920;27;20219;-71
2021/12/16 05:18:36;;;;;;;76.93;35.67;;;7.90;99.90;;;;;;5099331;28;20605;-71
2021/12/16 05:21:46;;;;;;;68.50;33.20;;;7.90;99.90;;;;;;5083691;28;20235;-71
2021/12/16 05:24:42;;;;;;;71.60;35.43;;;7.90;99.90;;;;;;5095028;27;20809;-72
2021/12/16 05:27:37;;;;;;;76.93;35.80;;;7.80;99.90;;;;;;5082999;28;20218;-71
2021/12/16 05:30:26;;;;;;;74.73;36.30;;;7.90;99.90;;;;;;5081447;28;20239;-71
2021/12/16 05:33:15;;;;;;;69.27;34.37;;;7.80;99.90;;;;;;5066296;28;20231;-72
2021/12/16 05:36:05;;;;;;;74.53;35.00;;;7.90;99.90;;;;;;5100926;27;20222;-71
2021/12/16 05:38:54;;;;;;;80.27;37.40;;;7.90;99.90;;;;;;5079176;28;20227;-71
2021/12/16 05:41:47;;;;;;;73.00;36.20;;;7.80;99.90;;;;;;5092861;28;20698;-71
2021/12/16 05:44:37;;;;;;;78.80;37.10;;;7.90;99.90;;;;;;5101256;28;20226;-71
2021/12/16 05:47:26;;;;;;;80.33;37.23;;;7.90;99.90;;;;;;5093854;28;20295;-72
2021/12/16 05:50:16;;;;;;;94.53;39.73;;;7.80;99.90;;;;;;5099221;28;20223;-72
2021/12/16 05:53:05;;;;;;;80.93;36.47;;;7.70;99.90;;;;;;5087201;28;20218;-71
2021/12/16 05:55:56;;;;;;;82.53;38.63;;;7.80;99.90;;;;;;5079356;28;20231;-71
2021/12/16 05:58:50;;;;;;;86.80;37.50;;;7.80;99.90;;;;;;5071329;28;20224;-71
2021/12/16 06:01:41;;;;;;;82.73;35.53;;;7.70;99.90;;;;;;5081920;28;20357;-72
2021/12/16 06:04:33;;;;;;;80.23;36.97;;;7.70;99.90;;;;;;5094961;28;20219;-71
2021/12/16 06:07:29;;;;;;;77.57;35.03;;;7.70;99.90;;;;;;5085410;28;20242;-72
2021/12/16 06:10:51;;;;;;;80.37;35.77;;;7.70;99.90;;;;;;5078954;28;21103;-71
2021/12/16 06:13:37;;;;;;;78.17;35.07;;;7.70;99.90;;;;;;5084272;28;20219;-71
2021/12/16 06:26:31;;;;;;;70.70;35.73;;;7.70;99.90;;;;;;5099292;28;20215;-72
2021/12/16 06:29:20;;;;;;;68.43;34.70;;;7.70;99.90;;;;;;5099738;28;20226;-71
2021/12/16 06:32:11;;;;;;;71.93;35.30;;;7.70;99.90;;;;;;5088058;28;20231;-71
2021/12/16 06:35:00;;;;;;;68.10;34.17;;;7.70;99.90;;;;;;5088404;28;20223;-71
2021/12/16 06:37:49;;;;;;;65.20;34.77;;;7.70;99.90;;;;;;5101464;28;20239;-71
2021/12/16 06:40:45;;;;;;;73.40;36.13;;;7.70;99.90;;;;;;5082450;28;20215;-73
2021/12/16 06:44:17;;;;;;;74.07;36.63;;;7.70;99.90;;;;;;5034089;28;20574;-72
2021/12/16 06:47:11;;;;;;;72.73;35.97;;;7.70;99.90;;;;;;5085692;28;21379;-72
2021/12/16 06:50:01;;;;;;;68.03;36.27;;;7.70;99.90;;;;;;5101852;28;20230;-72
2021/12/16 06:52:50;;;;;;;72.60;36.53;;;7.80;99.90;;;;;;5100444;28;20222;-72
2021/12/16 06:55:44;;;;;;;76.17;36.93;;;7.70;99.90;;;;;;5100353;28;20226;-71
2021/12/16 06:58:38;;;;;;;75.40;36.10;;;7.70;99.90;;;;;;5084875;28;20591;-71
2021/12/16 07:01:37;;;;;;;75.90;36.57;;;7.70;99.90;;;;;;5099770;28;20582;-72
2021/12/16 07:04:26;;;;;;;68.00;35.23;;;7.70;99.90;;;;;;5099536;28;20242;-72
2021/12/16 07:07:16;;;;;;;75.57;36.53;;;7.70;99.90;;;;;;5100987;27;20575;-72
2021/12/16 07:10:08;;;;;;;76.93;35.87;;;7.70;99.90;;;;;;5098580;28;20214;-73
2021/12/16 07:13:05;;;;;;;73.80;35.77;;;7.70;99.90;;;;;;5099429;28;20230;-69
2021/12/16 07:15:54;;;;;;;81.23;37.23;;;7.70;99.90;;;;;;5100556;28;20794;-65
2021/12/16 07:18:43;;;;;;;73.13;36.93;;;7.70;99.90;;;;;;5087287;28;20211;-68
2021/12/16 07:21:37;;;;;;;69.50;36.27;;;7.70;99.90;;;;;;5103675;28;20223;-68
2021/12/16 07:24:27;;;;;;;78.27;36.87;;;7.70;99.90;;;;;;5087941;28;20223;-70
2021/12/16 07:27:16;;;;;;;74.97;37.10;;;7.70;99.90;;;;;;5099199;28;20207;-68
2021/12/16 07:30:08;;;;;;;75.90;36.33;;;7.70;99.90;;;;;;5099900;28;20244;-68
2021/12/16 07:32:56;;;;;;;71.37;34.77;;;7.80;99.90;;;;;;5086495;28;20228;-68
2021/12/16 07:35:46;;;;;;;69.87;35.43;;;7.80;99.90;;;;;;5100133;28;20251;-66
2021/12/16 07:38:35;;;;;;;69.37;35.73;;;7.70;99.90;;;;;;5082553;28;20211;-67
2021/12/16 07:41:31;;;;;;;69.23;34.20;;;7.80;99.90;;;;;;5101491;28;20215;-67
2021/12/16 07:44:20;;;;;;;71.23;34.83;;;7.70;99.90;;;;;;5106207;28;20224;-68
2021/12/16 07:47:11;;;;;;;78.00;35.33;;;7.80;99.90;;;;;;5105036;27;20243;-67
2021/12/16 07:50:00;;;;;;;71.27;35.93;;;7.90;99.90;;;;;;5087182;28;20221;-67
2021/12/16 07:52:50;;;;;;;69.23;34.70;;;7.90;99.90;;;;;;5086089;28;20829;-67
2021/12/16 07:55:41;;;;;;;75.27;36.23;;;7.90;99.90;;;;;;5098866;28;20304;-67
2021/12/16 07:58:32;;;;;;;64.93;33.00;;;7.90;99.90;;;;;;5096537;28;20217;-67
2021/12/16 08:01:21;;;;;;;69.27;32.77;;;8.00;99.90;;;;;;5099490;28;20222;-68
2021/12/16 08:04:18;;;;;;;70.50;34.83;;;8.00;99.90;;;;;;5102840;28;20227;-70
2021/12/16 08:07:08;;;;;;;72.17;33.73;;;7.80;99.90;;;;;;5104068;28;20241;-67
2021/12/16 08:09:57;;;;;;;74.97;35.73;;;7.90;99.90;;;;;;5088906;28;20226;-69
2021/12/16 08:12:46;;;;;;;80.83;36.87;;;7.80;99.90;;;;;;5101155;27;20217;-68
2021/12/16 08:15:37;;;;;;;73.03;35.90;;;7.90;99.90;;;;;;5090325;28;20223;-69
2021/12/16 08:18:25;;;;;;;71.33;34.20;;;7.80;99.90;;;;;;5100582;28;20210;-69
2021/12/16 08:21:18;;;;;;;75.43;35.73;;;7.90;99.90;;;;;;5101030;28;20236;-68
2021/12/16 08:24:13;;;;;;;82.17;35.20;;;7.90;99.90;;;;;;5096446;28;20233;-69
2021/12/16 08:27:02;;;;;;;78.00;34.10;;;7.90;99.90;;;;;;5095505;28;20982;-71
2021/12/16 08:29:51;;;;;;;76.87;35.83;;;7.90;99.90;;;;;;5098674;28;20227;-71
2021/12/16 08:32:41;;;;;;;81.50;36.27;;;7.90;99.90;;;;;;5095118;28;20302;-70
2021/12/16 08:35:31;;;;;;;78.43;35.43;;;7.90;99.90;;;;;;5103351;28;20731;-66
2021/12/16 08:38:23;;;;;;;83.50;36.87;;;7.90;99.90;;;;;;5086385;28;20225;-67
2021/12/16 08:41:15;;;;;;;81.13;35.77;;;7.90;99.90;;;;;;5087514;28;20258;-68
2021/12/16 08:44:05;;;;;;;80.73;35.30;;;7.90;99.90;;;;;;5083399;28;20380;-69
2021/12/16 08:46:58;;;;;;;72.50;33.13;;;7.90;99.90;;;;;;5099261;27;20209;-68
2021/12/16 08:49:49;;;;;;;77.07;35.37;;;7.90;99.90;;;;;;5096929;27;20216;-69
2021/12/16 08:52:38;;;;;;;73.20;34.13;;;8.00;99.90;;;;;;5095828;28;20227;-70
2021/12/16 08:55:28;;;;;;;71.87;34.40;;;8.00;99.90;;;;;;5083347;28;20221;-69
2021/12/16 08:58:17;;;;;;;72.77;32.87;;;8.00;99.90;;;;;;5087710;28;20230;-69
2021/12/16 09:01:11;;;;;;;80.70;33.17;;;8.00;99.90;;;;;;5085139;28;20599;-71
2021/12/16 09:04:00;;;;;;;68.07;33.00;;;8.00;99.90;;;;;;5097589;28;20223;-70
2021/12/16 09:06:51;;;;;;;71.20;34.10;;;8.00;99.90;;;;;;5087051;28;20692;-70
2021/12/16 09:09:43;;;;;;;83.20;34.70;;;8.00;99.90;;;;;;5083857;28;20219;-70
2021/12/16 09:12:54;;;;;;;76.33;34.10;;;8.00;99.90;;;;;;5098855;28;20259;-71
2021/12/16 09:15:46;;;;;;;73.83;34.20;;;8.00;99.90;;;;;;5098279;27;20222;-70
2021/12/16 09:18:41;;;;;;;73.63;33.77;;;8.00;99.90;;;;;;5096337;28;20694;-70
2021/12/16 09:21:32;;;;;;;77.37;34.40;;;7.90;99.90;;;;;;5095386;28;20226;-69
2021/12/16 09:24:22;;;;;;;75.67;32.23;;;8.00;99.90;;;;;;5089637;28;20207;-69
2021/12/16 09:27:11;;;;;;;80.93;34.47;;;8.10;99.90;;;;;;5074004;28;20240;-67
2021/12/16 09:30:04;;;;;;;76.10;32.30;;;8.10;99.90;;;;;;5096865;28;20232;-70
2021/12/16 09:32:57;;;;;;;78.87;33.40;;;8.10;99.90;;;;;;5087121;28;20226;-74
2021/12/16 09:35:50;;;;;;;74.10;32.23;;;8.10;99.90;;;;;;5086038;28;20216;-68
2021/12/16 09:38:39;;;;;;;75.97;31.97;;;8.10;99.90;;;;;;5097013;28;20757;-69
2021/12/16 09:41:29;;;;;;;73.03;31.63;;;8.00;99.90;;;;;;5098558;28;20211;-69
2021/12/16 09:44:19;;;;;;;74.17;31.87;;;8.00;99.90;;;;;;5096271;28;20220;-69
2021/12/16 09:47:15;;;;;;;65.37;29.50;;;8.00;99.90;;;;;;5097578;28;20224;-68
2021/12/16 09:50:06;;;;;;;65.57;29.90;;;8.00;99.90;;;;;;5097161;28;20738;-68
2021/12/16 09:52:56;;;;;;;74.97;31.57;;;8.00;99.90;;;;;;5078762;28;20234;-68
2021/12/16 09:55:46;;;;;;;69.03;30.93;;;8.10;99.90;;;;;;5101053;28;20222;-71
2021/12/16 09:58:41;;;;;;;62.77;30.27;;;8.20;99.90;;;;;;5097512;28;20226;-70
2021/12/16 10:01:32;;;;;;;67.00;28.97;;;8.10;99.90;;;;;;5100784;28;20221;-70
2021/12/16 10:04:23;;;;;;;65.57;28.57;;;8.20;99.90;;;;;;5096376;28;20338;-70
2021/12/16 10:07:15;;;;;;;64.00;28.97;;;8.20;99.90;;;;;;5098949;28;20590;-69
2021/12/16 10:10:09;;;;;;;71.50;28.97;;;8.20;99.90;;;;;;5083528;28;20228;-70
2021/12/16 10:13:01;;;;;;;58.17;27.03;;;8.20;99.90;;;;;;5095546;28;20220;-70
2021/12/16 10:18:57;;;;;;;73.53;29.30;;;8.20;99.90;;;;;;5097221;28;20220;-69
2021/12/16 10:21:46;;;;;;;58.97;27.83;;;8.20;99.90;;;;;;5098007;28;20227;-72
2021/12/16 10:24:35;;;;;;;56.13;26.33;;;8.20;99.90;;;;;;5097730;28;20213;-69
2021/12/16 10:27:25;;;;;;;55.97;25.43;;;8.20;99.90;;;;;;5104341;28;20242;-69
2021/12/16 10:30:15;;;;;;;51.23;24.00;;;8.20;99.90;;;;;;5082409;28;20264;-70
2021/12/16 10:33:13;;;;;;;54.77;25.83;;;8.20;99.90;;;;;;5092357;27;20312;-69
2021/12/16 10:36:11;;;;;;;54.20;25.70;;;8.20;99.90;;;;;;5100098;28;20215;-70
2021/12/16 10:39:03;;;;;;;49.73;25.90;;;8.20;99.90;;;;;;5102644;28;20223;-69
2021/12/16 10:41:55;;;;;;;48.90;24.47;;;8.20;99.90;;;;;;5101288;28;20224;-68
2021/12/16 10:44:44;;;;;;;56.00;26.87;;;8.30;99.90;;;;;;5092067;28;20241;-70
2021/12/16 10:47:36;;;;;;;57.60;27.63;;;8.30;99.90;;;;;;5082793;28;20277;-69
2021/12/16 10:50:26;;;;;;;44.30;24.00;;;8.30;99.90;;;;;;5102554;28;20221;-69
2021/12/16 10:53:16;;;;;;;48.90;25.53;;;8.30;99.90;;;;;;5102831;27;20226;-71
2021/12/16 10:56:05;;;;;;;50.87;25.23;;;8.30;99.90;;;;;;5100459;28;20227;-69
2021/12/16 10:58:56;;;;;;;48.83;24.80;;;8.30;99.90;;;;;;5101242;28;20212;-68
2021/12/16 11:02:02;;;;;;;49.80;25.73;;;8.30;99.90;;;;;;5100933;28;20225;-69
2021/12/16 11:04:53;;;;;;;50.43;25.33;;;8.30;99.90;;;;;;5099608;28;20229;-70
2021/12/16 11:07:46;;;;;;;50.93;26.13;;;8.30;99.90;;;;;;5101048;27;20227;-69
2021/12/16 11:10:37;;;;;;;50.40;25.33;;;8.30;99.90;;;;;;5100572;28;20213;-70
2021/12/16 11:13:31;;;;;;;44.90;24.27;;;8.30;99.90;;;;;;5100392;28;20224;-70
2021/12/16 11:16:31;;;;;;;49.10;26.97;;;8.30;99.90;;;;;;5091554;28;20701;-70
2021/12/16 11:19:42;;;;;;;46.27;24.53;;;8.40;99.90;;;;;;5088591;28;20309;-70
2021/12/16 11:22:34;;;;;;;47.17;24.03;;;8.30;99.90;;;;;;5097981;28;20235;-71
2021/12/16 11:25:28;;;;;;;42.23;24.03;;;8.30;99.90;;;;;;5099546;28;20714;-70
2021/12/16 11:28:24;;;;;;;43.73;24.97;;;8.30;99.90;;;;;;5100829;28;20212;-69
2021/12/16 11:31:14;;;;;;;44.33;24.17;;;8.30;99.90;;;;;;5099230;28;20588;-69
2021/12/16 11:34:04;;;;;;;42.67;23.67;;;8.40;99.90;;;;;;5100061;28;20233;-69
2021/12/16 11:36:54;;;;;;;42.73;23.60;;;8.40;99.90;;;;;;5081141;28;20219;-69
2021/12/16 11:39:42;;;;;;;41.90;24.20;;;8.30;99.90;;;;;;5088871;28;20224;-71
2021/12/16 11:42:33;;;;;;;36.33;22.03;;;8.30;99.90;;;;;;5083395;28;20223;-69
2021/12/16 11:45:32;;;;;;;40.83;21.90;;;8.40;99.90;;;;;;5101110;28;20234;-67
2021/12/16 11:48:29;;;;;;;37.63;21.57;;;8.40;99.90;;;;;;5100730;28;20215;-70
2021/12/16 11:51:22;;;;;;;32.93;21.87;;;8.40;99.90;;;;;;5087120;28;20258;-70
2021/12/16 11:54:19;;;;;;;32.53;19.67;;;8.50;99.90;;;;;;5100932;28;20229;-71
2021/12/16 11:57:14;;;;;;;34.47;20.17;;;8.60;99.90;;;;;;5095423;28;20223;-69
2021/12/16 12:00:09;;;;;;;27.97;19.27;;;8.60;99.90;;;;;;5096375;28;20358;-70
2021/12/16 12:03:03;;;;;;;32.23;18.63;;;8.70;99.90;;;;;;5101479;27;20222;-69
2021/12/16 12:05:53;;;;;;;31.23;19.58;;;8.70;99.90;;;;;;5087944;28;20224;-71
2021/12/16 12:08:46;;;;;;;28.03;18.73;;;8.70;99.90;;;;;;5100194;28;20712;-70
2021/12/16 12:11:38;;;;;;;25.77;18.40;;;8.70;99.90;;;;;;5095018;28;20225;-68
2021/12/16 12:14:33;;;;;;;28.85;18.65;;;8.70;99.90;;;;;;5087750;28;20214;-70
2021/12/16 12:17:23;;;;;;;26.60;18.70;;;8.70;99.90;;;;;;5098381;28;20225;-69
2021/12/16 12:20:11;;;;;;;28.63;19.13;;;8.80;99.90;;;;;;5100092;28;20219;-70
2021/12/16 12:23:01;;;;;;;22.43;15.30;;;8.70;99.90;;;;;;5099433;28;20242;-70
2021/12/16 12:25:50;;;;;;;20.40;14.97;;;8.60;99.90;;;;;;5099948;28;20218;-69
2021/12/16 12:28:39;;;;;;;23.33;15.63;;;8.60;99.90;;;;;;5097065;28;20221;-70
2021/12/16 12:31:35;;;;;;;20.13;14.03;;;8.60;99.90;;;;;;5097230;28;20653;-70
2021/12/16 12:34:25;;;;;;;18.70;13.23;;;8.50;99.90;;;;;;5099623;28;20234;-71
2021/12/16 12:37:18;;;;;;;16.77;12.93;;;8.60;99.90;;;;;;5087564;28;20252;-70
2021/12/16 12:40:10;;;;;;;14.60;11.30;;;8.50;99.90;;;;;;5084451;28;20229;-68
2021/12/16 12:42:59;;;;;;;18.13;12.50;;;8.50;99.90;;;;;;5101606;28;20686;-70
2021/12/16 12:45:48;;;;;;;16.07;10.90;;;8.60;99.90;;;;;;5100252;28;20242;-68
2021/12/16 12:48:39;;;;;;;13.73;10.90;;;8.50;99.90;;;;;;5085713;28;20567;-69
2021/12/16 12:51:38;;;;;;;15.80;9.67;;;8.50;99.90;;;;;;5085807;28;20750;-70
2021/12/16 12:54:30;;;;;;;15.43;10.23;;;8.50;99.90;;;;;;5100777;28;20251;-70
2021/12/16 12:57:24;;;;;;;11.63;8.63;;;8.50;99.90;;;;;;5096887;28;20575;-71
2021/12/16 13:00:26;;;;;;;9.73;7.90;;;8.50;99.90;;;;;;5101945;28;20359;-71
2021/12/16 13:03:19;;;;;;;9.43;7.73;;;8.50;99.90;;;;;;5095289;27;20258;-70
2021/12/16 13:06:10;;;;;;;8.60;6.83;;;8.50;99.90;;;;;;5098233;28;20237;-70
2021/12/16 13:09:03;;;;;;;8.47;6.60;;;8.50;99.90;;;;;;5096320;28;20271;-70
2021/12/16 13:11:52;;;;;;;8.37;6.40;;;8.50;99.90;;;;;;5095368;28;20587;-69
2021/12/16 13:14:49;;;;;;;8.07;6.47;;;8.40;99.90;;;;;;5096619;28;20215;-71
2021/12/16 13:24:34;;;;;;;10.47;7.43;;;8.50;99.90;;;;;;5093639;27;20313;-70
2021/12/16 13:27:33;;;;;;;9.77;7.73;;;8.50;99.90;;;;;;5097947;27;20223;-71
2021/12/16 13:30:31;;;;;;;8.73;7.13;;;8.50;99.90;;;;;;5099056;28;20254;-69
2021/12/16 13:33:24;;;;;;;8.13;5.87;;;8.50;99.90;;;;;;5094472;28;20220;-70
2021/12/16 13:36:25;;;;;;;9.00;6.30;;;8.50;99.90;;;;;;5101304;28;20242;-69
2021/12/16 13:39:21;;;;;;;7.63;6.23;;;8.50;99.90;;;;;;5085594;28;20230;-70
2021/12/16 13:42:15;;;;;;;7.63;6.00;;;8.50;99.90;;;;;;5099748;28;20232;-69
2021/12/16 13:45:13;;;;;;;7.17;6.30;;;8.50;99.90;;;;;;5100647;28;20225;-70
2021/12/16 13:48:23;;;;;;;6.77;5.77;;;8.40;99.90;;;;;;5090065;28;20670;-67
2021/12/16 13:58:19;;;;;;;8.27;5.70;;;8.50;99.90;;;;;;5068175;28;20221;-68
2021/12/16 14:01:28;;;;;;;8.80;5.67;;;8.40;99.90;;;;;;5099818;28;20224;-69
2021/12/16 14:04:39;;;;;;;8.13;5.60;;;8.40;99.90;;;;;;5081573;28;20214;-69
2021/12/16 14:07:58;;;;;;;8.13;5.63;;;8.40;99.90;;;;;;5087435;28;20220;-69
2021/12/16 14:10:55;;;;;;;8.10;5.27;;;8.40;99.90;;;;;;5088374;28;20634;-69
2021/12/16 14:17:17;;;;;;;8.17;6.50;;;8.50;99.90;;;;;;5074263;28;20228;-70
2021/12/16 14:23:50;;;;;;;8.13;6.27;;;8.40;99.90;;;;;;5093148;28;20550;-71
2021/12/16 14:26:51;;;;;;;7.87;5.93;;;8.40;99.90;;;;;;5087265;28;20257;-69
2021/12/16 14:42:27;;;;;;;8.27;6.13;;;8.50;99.90;;;;;;5088186;28;20211;-71
2021/12/16 14:45:27;;;;;;;9.40;6.10;;;8.40;99.90;;;;;;5099139;28;20665;-68
2021/12/16 14:48:27;;;;;;;10.03;6.60;;;8.40;99.90;;;;;;5097499;28;20842;-69
2021/12/16 14:51:17;;;;;;;9.52;5.63;;;8.40;99.90;;;;;;5104068;28;20394;-70
2021/12/16 14:54:07;;;;;;;7.17;5.10;;;8.40;99.90;;;;;;5083002;28;20224;-70
2021/12/16 14:56:59;;;;;;;8.60;5.10;;;8.40;99.90;;;;;;5087672;28;20244;-70
2021/12/16 14:59:49;;;;;;;5.20;4.70;;;8.40;99.90;;;;;;5097354;28;20310;-70
2021/12/16 15:02:40;;;;;;;8.00;4.60;;;8.40;99.90;;;;;;5098486;28;20608;-69
2021/12/16 15:05:37;;;;;;;9.20;5.23;;;8.40;99.90;;;;;;5090463;28;20239;-69
2021/12/16 15:08:35;;;;;;;10.47;5.40;;;8.30;99.90;;;;;;5103142;28;20527;-70
2021/12/16 15:11:33;;;;;;;11.10;5.53;;;8.40;99.90;;;;;;5101472;28;20248;-69
2021/12/16 15:14:35;;;;;;;8.83;5.40;;;8.30;99.90;;;;;;5104097;27;20738;-70
2021/12/16 15:17:46;;;;;;;13.13;5.50;;;8.30;99.90;;;;;;5098706;27;20235;-70
2021/12/16 15:36:37;;;;;;;8.50;5.10;;;8.20;99.90;;;;;;5082385;28;20878;-70
2021/12/16 15:39:45;;;;;;;10.13;5.63;;;8.20;99.90;;;;;;5098314;28;20697;-70
2021/12/16 15:42:52;;;;;;;9.23;5.30;;;8.10;99.90;;;;;;5099522;28;20229;-69
2021/12/16 15:45:44;;;;;;;7.73;4.43;;;7.90;99.90;;;;;;5084545;28;20226;-68
2021/12/16 15:48:40;;;;;;;8.27;4.70;;;7.90;99.90;;;;;;5101110;28;20701;-69
2021/12/16 15:51:30;;;;;;;9.03;4.47;;;7.80;99.90;;;;;;5097618;28;20233;-69
2021/12/16 15:54:44;;;;;;;7.47;4.37;;;7.70;99.90;;;;;;5089028;28;20211;-69
2021/12/16 15:57:33;;;;;;;6.87;4.53;;;7.80;99.90;;;;;;5097085;28;20371;-70
2021/12/16 16:00:23;;;;;;;10.90;4.57;;;7.80;99.90;;;;;;5085397;28;20226;-69
2021/12/16 16:03:14;;;;;;;9.43;4.20;;;7.80;99.90;;;;;;5086478;28;20242;-69
2021/12/16 16:06:09;;;;;;;8.27;4.17;;;7.80;99.90;;;;;;5098603;28;20225;-70
2021/12/16 16:09:02;;;;;;;8.20;4.10;;;7.80;99.90;;;;;;5102330;27;20308;-68
2021/12/16 16:11:53;;;;;;;6.13;3.70;;;7.70;99.90;;;;;;5098557;27;20306;-71
2021/12/16 16:14:49;;;;;;;7.97;4.47;;;7.80;99.90;;;;;;5100011;27;20734;-69
2021/12/16 16:17:43;;;;;;;9.20;4.10;;;7.70;99.90;;;;;;5091742;28;20329;-71
2021/12/16 16:20:34;;;;;;;6.50;3.87;;;7.70;99.90;;;;;;5086002;28;20258;-70
2021/12/16 16:23:25;;;;;;;8.80;4.73;;;7.60;99.90;;;;;;5097391;28;20220;-69
2021/12/16 16:26:16;;;;;;;8.50;4.60;;;7.50;99.90;;;;;;5096334;28;20233;-71
2021/12/16 16:29:14;;;;;;;9.17;4.30;;;7.50;99.90;;;;;;5100786;28;20216;-70
2021/12/16 16:32:04;;;;;;;10.80;4.23;;;7.50;99.90;;;;;;5101717;28;20226;-70
2021/12/16 16:34:55;;;;;;;7.83;4.23;;;7.50;99.90;;;;;;5100048;28;20247;-67
2021/12/16 16:37:43;;;;;;;9.13;5.27;;;7.40;99.90;;;;;;5089223;27;20682;-70
2021/12/16 16:40:39;;;;;;;9.63;4.73;;;7.40;99.90;;;;;;5098343;28;20214;-72
2021/12/16 16:43:32;;;;;;;9.63;4.73;;;7.40;99.90;;;;;;5087861;28;20231;-70
2021/12/16 16:46:29;;;;;;;9.13;4.70;;;7.30;99.90;;;;;;5100173;28;20211;-69
2021/12/16 16:49:27;;;;;;;8.63;4.47;;;7.30;99.90;;;;;;5083443;28;20223;-68
2021/12/16 16:52:21;;;;;;;10.07;4.63;;;7.30;99.90;;;;;;5101822;27;20237;-69
2021/12/16 16:55:12;;;;;;;13.30;5.17;;;7.20;99.90;;;;;;5083758;28;20227;-69
2021/12/16 16:58:05;;;;;;;10.40;5.27;;;7.20;99.90;;;;;;5096344;28;20250;-69
2021/12/16 17:00:54;;;;;;;20.27;6.00;;;7.20;99.90;;;;;;5098411;28;20723;-69
2021/12/16 17:03:46;;;;;;;12.33;6.37;;;7.20;99.90;;;;;;5096705;28;20253;-69
2021/12/16 17:06:35;;;;;;;9.60;5.87;;;7.20;99.90;;;;;;5097826;28;20703;-69
2021/12/16 17:09:29;;;;;;;10.37;5.57;;;7.10;99.90;;;;;;5095346;28;20234;-70
2021/12/16 17:12:18;;;;;;;9.47;5.53;;;7.10;99.90;;;;;;5098750;28;20246;-69
2021/12/16 17:15:31;;;;;;;12.53;6.30;;;7.10;99.90;;;;;;5086848;28;20728;-68
2021/12/16 17:18:23;;;;;;;12.07;6.10;;;7.00;99.90;;;;;;5093533;28;20227;-68
2021/12/16 17:21:16;;;;;;;11.93;6.40;;;7.00;99.90;;;;;;5094955;28;20448;-70
2021/12/16 17:24:08;;;;;;;11.03;5.60;;;7.00;99.90;;;;;;5093255;28;20234;-68
2021/12/16 17:27:00;;;;;;;14.03;5.90;;;7.00;99.90;;;;;;5078515;28;20223;-69
2021/12/16 17:29:52;;;;;;;11.60;5.60;;;7.10;99.90;;;;;;5093029;28;20641;-69
2021/12/16 17:32:46;;;;;;;13.60;6.20;;;7.10;99.90;;;;;;5097017;28;20216;-68
2021/12/16 17:35:38;;;;;;;12.70;6.13;;;7.10;99.90;;;;;;5097446;28;20730;-68